Time;durP1;ratioP1;P1;durP2;ratioP2;P2;SDS_P1;SDS_P2;PMS_P1;PMS_P2;Temp;Humidity;BMP_temperature;BMP_pressure;BME280_temperature;BME280_humidity;BME280_pressure;Samples;Min_cycle;Max_cycle;Signal;HPM_P1;HPM_P2
2023/06/18 00:00:12;;;;;;;;;13.60;12.80;;;;;18.86;48.98;99132.50;4979504;28;8993;-89
2023/06/18 00:03:02;;;;;;;;;12.60;12.60;;;;;18.84;49.05;99133.56;4984484;28;8839;-89
2023/06/18 00:05:31;;;;;;;;;15.00;14.40;;;;;18.90;49.20;99141.16;5011472;28;8862;-87
2023/06/18 00:08:01;;;;;;;;;15.00;15.00;;;;;18.90;49.65;99150.00;5019982;28;8993;-90
2023/06/18 00:10:29;;;;;;;;;14.80;14.40;;;;;18.91;49.65;99145.50;4958425;28;8858;-88
2023/06/18 00:12:59;;;;;;;;;17.40;15.80;;;;;18.96;49.57;99148.75;5012254;28;8866;-88
2023/06/18 00:15:29;;;;;;;;;16.20;16.00;;;;;18.80;49.90;99148.88;5008235;28;8967;-89
2023/06/18 00:17:59;;;;;;;;;14.80;14.80;;;;;18.85;49.91;99152.06;4988379;28;8899;-88
2023/06/18 00:20:28;;;;;;;;;17.00;17.00;;;;;18.80;49.99;99159.50;4969303;28;8928;-89
2023/06/18 00:22:57;;;;;;;;;16.60;16.60;;;;;18.80;50.18;99147.97;4985553;28;8880;-89
2023/06/18 00:25:26;;;;;;;;;17.60;17.00;;;;;18.71;50.39;99154.72;4968119;28;9604;-88
2023/06/18 00:27:55;;;;;;;;;12.80;12.40;;;;;18.68;50.36;99146.91;4968212;28;8880;-89
2023/06/18 00:30:25;;;;;;;;;17.00;15.80;;;;;18.60;50.89;99157.16;4984651;28;8873;-88
2023/06/18 00:32:58;;;;;;;;;15.00;13.80;;;;;18.65;50.79;99150.63;4920401;28;8869;-89
2023/06/18 00:35:27;;;;;;;;;17.40;17.40;;;;;18.24;51.85;99153.94;4983694;28;8909;-90
2023/06/18 00:37:59;;;;;;;;;16.80;16.20;;;;;18.31;51.79;99144.66;4967037;28;8864;-88
2023/06/18 00:40:28;;;;;;;;;15.80;15.80;;;;;18.30;51.67;99139.44;4962945;28;8975;-88
2023/06/18 00:42:58;;;;;;;;;18.00;18.00;;;;;18.36;51.57;99147.03;4956331;28;8928;-89
2023/06/18 00:45:28;;;;;;;;;19.00;18.00;;;;;18.38;51.16;99147.81;4969045;28;8873;-87
2023/06/18 00:48:00;;;;;;;;;18.80;18.80;;;;;18.30;51.67;99150.06;4969106;28;9050;-88
2023/06/18 00:50:32;;;;;;;;;14.40;14.20;;;;;18.30;51.34;99145.59;4979213;28;8895;-87
2023/06/18 00:53:02;;;;;;;;;18.00;17.20;;;;;18.27;51.72;99147.59;4923304;28;9082;-86
2023/06/18 00:55:31;;;;;;;;;14.80;14.80;;;;;18.20;51.82;99152.44;4991503;28;8870;-90
2023/06/18 00:58:03;;;;;;;;;17.20;17.20;;;;;18.13;52.12;99159.91;4972221;28;8891;-88
2023/06/18 01:00:34;;;;;;;;;18.80;18.80;;;;;18.04;51.97;99157.78;4927710;28;8864;-92
2023/06/18 01:03:09;;;;;;;;;16.00;15.20;;;;;18.03;52.27;99164.06;4973397;28;8906;-90
2023/06/18 01:05:38;;;;;;;;;17.00;16.20;;;;;17.94;52.39;99156.56;4956440;28;8867;-88
2023/06/18 01:08:12;;;;;;;;;17.40;16.40;;;;;17.61;53.26;99160.22;4961707;28;8846;-88
2023/06/18 01:10:42;;;;;;;;;18.00;18.00;;;;;17.68;53.17;99161.56;4997207;28;8985;-89
2023/06/18 01:13:14;;;;;;;;;18.40;17.40;;;;;17.74;52.95;99157.69;4998960;28;8851;-87
2023/06/18 01:15:43;;;;;;;;;17.40;16.80;;;;;17.75;52.78;99156.78;4977518;28;8858;-89
2023/06/18 01:18:17;;;;;;;;;16.00;15.40;;;;;17.63;53.17;99155.66;4990076;28;8968;-88
2023/06/18 01:20:49;;;;;;;;;15.80;15.80;;;;;17.47;53.27;99157.47;5006864;28;8862;-90
2023/06/18 01:23:28;;;;;;;;;18.20;17.40;;;;;17.55;53.65;99160.53;4990843;28;8862;-89
2023/06/18 01:26:00;;;;;;;;;18.00;17.00;;;;;17.58;53.34;99160.38;4991396;28;8838;-86
2023/06/18 01:28:30;;;;;;;;;16.20;16.20;;;;;17.61;53.27;99159.34;4975301;28;8874;-88
2023/06/18 01:31:01;;;;;;;;;17.60;16.60;;;;;17.64;53.16;99165.34;4991387;28;8854;-89
2023/06/18 01:33:34;;;;;;;;;15.60;15.60;;;;;17.65;53.08;99164.41;5009333;28;8881;-86
2023/06/18 01:36:07;;;;;;;;;14.00;14.00;;;;;17.53;53.27;99162.44;4978127;28;8916;-87
2023/06/18 01:38:42;;;;;;;;;17.00;16.20;;;;;17.61;53.32;99165.53;5022284;28;9648;-89
2023/06/18 01:41:17;;;;;;;;;17.20;17.00;;;;;17.67;53.08;99165.19;5046886;28;8866;-87
2023/06/18 01:43:54;;;;;;;;;19.20;17.40;;;;;17.71;52.86;99168.53;5036921;28;8863;-88
2023/06/18 01:46:25;;;;;;;;;15.60;15.60;;;;;17.69;52.80;99165.09;4995572;28;9003;-90
2023/06/18 01:48:58;;;;;;;;;16.20;15.80;;;;;17.67;52.82;99165.19;5026974;28;8940;-89
2023/06/18 01:51:28;;;;;;;;;15.60;14.20;;;;;17.71;52.54;99165.88;5044002;28;8862;-88
2023/06/18 01:54:06;;;;;;;;;15.20;14.60;;;;;17.69;52.77;99173.91;5011136;28;8916;-88
2023/06/18 01:56:36;;;;;;;;;16.80;15.80;;;;;17.69;52.69;99173.91;5009721;28;8897;-89
2023/06/18 01:59:06;;;;;;;;;16.80;15.80;;;;;17.66;52.73;99165.25;5033520;28;8868;-89
2023/06/18 02:01:36;;;;;;;;;18.80;18.80;;;;;17.65;52.89;99166.22;5033185;28;9610;-89
2023/06/18 02:04:07;;;;;;;;;17.20;16.20;;;;;17.63;52.84;99171.63;5068202;28;8960;-87
2023/06/18 02:06:36;;;;;;;;;16.80;16.80;;;;;17.62;52.85;99174.34;5033725;28;8880;-89
2023/06/18 02:09:07;;;;;;;;;18.40;18.40;;;;;17.62;53.00;99166.38;5020773;28;8864;-86
2023/06/18 02:11:36;;;;;;;;;15.60;15.00;;;;;17.62;52.87;99171.69;5017777;28;8876;-88
2023/06/18 02:14:10;;;;;;;;;18.00;16.80;;;;;17.59;52.91;99170.09;5047647;28;8852;-87
2023/06/18 02:16:42;;;;;;;;;18.20;17.80;;;;;17.47;53.22;99168.09;5022488;28;8876;-90
2023/06/18 02:19:13;;;;;;;;;16.80;16.80;;;;;17.43;53.26;99171.88;5048285;28;8848;-90
2023/06/18 02:21:42;;;;;;;;;15.40;14.80;;;;;17.44;53.19;99171.78;5017177;28;8870;-90
2023/06/18 02:24:11;;;;;;;;;12.60;12.60;;;;;17.43;53.21;99171.88;5034601;28;8868;-88
2023/06/18 02:26:41;;;;;;;;;17.20;16.40;;;;;17.42;53.12;99178.13;5015841;28;8872;-87
2023/06/18 02:29:11;;;;;;;;;16.60;16.00;;;;;17.40;53.25;99183.53;5015713;28;8848;-89
2023/06/18 02:31:40;;;;;;;;;15.20;14.80;;;;;17.42;53.21;99181.66;5000007;28;8849;-89
2023/06/18 02:34:18;;;;;;;;;15.00;15.00;;;;;17.40;53.19;99183.53;5032674;28;8871;-88
2023/06/18 02:36:52;;;;;;;;;13.60;13.40;;;;;17.31;53.34;99192.84;4998747;28;8918;-91
2023/06/18 02:39:21;;;;;;;;;18.60;17.60;;;;;17.34;53.06;99187.38;5015892;28;8864;-88
2023/06/18 02:41:50;;;;;;;;;14.40;14.40;;;;;17.20;53.42;99193.41;5032051;28;8892;-89
2023/06/18 02:44:20;;;;;;;;;13.60;13.40;;;;;17.07;53.78;99191.50;4998723;28;8856;-89
2023/06/18 02:46:50;;;;;;;;;14.60;14.20;;;;;17.08;53.67;99188.75;5015621;28;8882;-92
2023/06/18 02:49:21;;;;;;;;;11.40;11.20;;;;;17.07;53.78;99188.84;5000223;28;9614;-90
2023/06/18 02:51:51;;;;;;;;;18.00;15.20;;;;;17.09;53.70;99194.94;5032868;28;8888;-90
2023/06/18 02:54:21;;;;;;;;;17.40;17.00;;;;;17.09;53.67;99193.13;5037900;28;8824;-87
2023/06/18 02:56:51;;;;;;;;;16.80;15.60;;;;;17.06;53.67;99197.72;5003669;28;8864;-89
2023/06/18 02:59:21;;;;;;;;;15.60;15.60;;;;;17.13;53.50;99205.28;4986718;28;9034;-90
2023/06/18 03:01:50;;;;;;;;;17.40;15.60;;;;;17.09;53.76;99203.75;4962584;28;8861;-89
2023/06/18 03:04:22;;;;;;;;;16.00;16.00;;;;;17.12;53.47;99202.75;4920894;29;9042;-90
2023/06/18 03:06:52;;;;;;;;;16.00;13.80;;;;;17.13;53.63;99210.59;4916015;29;9044;-91
2023/06/18 03:09:22;;;;;;;;;16.40;15.40;;;;;17.09;53.86;99213.50;4931529;29;9001;-89
2023/06/18 03:12:11;;;;;;;;;16.60;16.20;;;;;17.13;53.52;99202.63;4870764;29;8884;-88
2023/06/18 03:14:41;;;;;;;;;14.60;14.60;;;;;17.15;53.59;99205.22;4879233;29;8997;-89
2023/06/18 03:17:11;;;;;;;;;16.60;16.60;;;;;17.17;53.29;99216.59;4923072;29;8989;-88
2023/06/18 03:19:45;;;;;;;;;15.40;15.40;;;;;17.21;53.52;99212.84;4927731;29;8875;-90
2023/06/18 03:22:15;;;;;;;;;17.40;16.80;;;;;17.13;53.66;99210.59;4932328;29;8891;-90
2023/06/18 03:24:45;;;;;;;;;14.00;14.00;;;;;17.16;53.44;99215.75;4918398;29;8875;-87
2023/06/18 03:27:14;;;;;;;;;14.80;14.80;;;;;17.20;53.26;99209.34;4885975;29;8879;-89
2023/06/18 03:29:45;;;;;;;;;15.40;15.40;;;;;17.20;53.29;99216.44;4907487;28;8865;-91
2023/06/18 03:32:15;;;;;;;;;17.60;17.40;;;;;17.18;53.22;99213.88;4953492;28;8904;-89
2023/06/18 03:34:48;;;;;;;;;18.00;17.00;;;;;17.24;53.49;99217.16;4975877;28;8852;-90
2023/06/18 03:37:22;;;;;;;;;17.60;15.40;;;;;17.27;53.14;99214.34;4975809;28;8876;-89
2023/06/18 03:39:52;;;;;;;;;19.80;18.20;;;;;17.30;53.11;99219.50;4968611;28;8844;-90
2023/06/18 03:42:21;;;;;;;;;16.00;15.60;;;;;17.36;53.05;99225.34;4905852;28;8872;-88
2023/06/18 03:44:51;;;;;;;;;13.00;13.00;;;;;17.38;52.93;99222.59;4970721;28;8885;-88
2023/06/18 03:47:21;;;;;;;;;25.80;25.80;;;;;17.33;52.74;99219.34;4968830;28;8875;-88
2023/06/18 03:49:53;;;;;;;;;74.50;63.50;;;;;17.43;52.93;99217.03;4971063;28;8882;-87
2023/06/18 03:52:22;;;;;;;;;25.00;23.60;;;;;17.54;52.57;99223.47;4939692;28;8856;-89
2023/06/18 03:54:52;;;;;;;;;20.00;19.80;;;;;17.64;52.45;99221.16;4953415;28;8916;-87
2023/06/18 03:57:21;;;;;;;;;17.00;15.00;;;;;17.73;52.34;99222.47;4938668;28;8866;-91
2023/06/18 03:59:51;;;;;;;;;20.60;18.40;;;;;17.84;51.71;99222.72;4973114;28;8893;-90
2023/06/18 04:02:21;;;;;;;;;16.80;16.40;;;;;17.92;51.81;99215.16;4954357;28;8922;-88
2023/06/18 04:04:54;;;;;;;;;18.00;17.80;;;;;18.03;51.71;99224.34;4941869;28;8850;-86
2023/06/18 04:07:23;;;;;;;;;15.80;15.20;;;;;18.11;51.05;99227.44;4960107;28;8869;-88
2023/06/18 04:09:52;;;;;;;;;16.40;15.60;;;;;17.85;51.22;99234.19;4913660;28;8890;-85
2023/06/18 04:12:22;;;;;;;;;16.60;15.80;;;;;17.97;50.84;99236.19;4975144;28;8855;-86
2023/06/18 04:14:52;;;;;;;;;15.40;15.00;;;;;18.02;50.81;99234.09;4973198;28;8863;-87
2023/06/18 04:17:21;;;;;;;;;18.60;16.80;;;;;18.18;50.77;99238.59;4910897;29;8860;-86
2023/06/18 04:19:50;;;;;;;;;23.60;23.00;;;;;18.29;50.57;99234.38;4943259;29;8922;-88
2023/06/18 04:22:21;;;;;;;;;16.20;16.20;;;;;17.88;50.99;99244.69;4928289;28;9575;-87
2023/06/18 04:24:50;;;;;;;;;24.00;22.60;;;;;18.15;50.51;99244.94;4939642;28;8850;-87
2023/06/18 04:27:19;;;;;;;;;23.20;22.20;;;;;18.30;50.32;99246.72;4926372;28;8862;-85
2023/06/18 04:29:49;;;;;;;;;34.25;32.25;;;;;18.50;49.92;99247.38;4941672;28;8846;-88
2023/06/18 04:32:18;;;;;;;;;19.60;18.20;;;;;18.68;49.71;99250.75;4948310;29;8856;-84
2023/06/18 04:34:47;;;;;;;;;16.40;15.60;;;;;18.72;49.02;99247.81;4951781;28;9241;-85
2023/06/18 04:37:16;;;;;;;;;21.40;20.00;;;;;18.69;49.33;99250.66;4948257;28;8849;-86
2023/06/18 04:39:48;;;;;;;;;19.40;17.40;;;;;18.27;50.31;99251.34;4925242;28;8912;-90
2023/06/18 04:42:17;;;;;;;;;17.20;16.40;;;;;18.41;50.28;99250.56;4970795;28;9025;-87
2023/06/18 04:44:46;;;;;;;;;15.00;15.00;;;;;18.60;49.47;99258.31;4955116;28;8892;-87
2023/06/18 04:47:16;;;;;;;;;32.80;30.60;;;;;18.78;49.34;99257.25;4944879;28;8869;-89
2023/06/18 04:49:46;;;;;;;;;55.50;45.25;;;;;19.03;48.95;99251.31;4991943;28;9002;-88
2023/06/18 04:52:15;;;;;;;;;23.20;22.60;;;;;19.22;48.31;99258.19;5008507;28;8872;-87
2023/06/18 04:54:48;;;;;;;;;18.80;15.60;;;;;19.42;47.87;99260.44;4992204;28;8953;-86
2023/06/18 04:57:18;;;;;;;;;15.60;15.40;;;;;19.56;47.54;99258.78;5030702;28;8845;-88
2023/06/18 04:59:47;;;;;;;;;21.00;17.60;;;;;19.50;47.36;99271.50;5047072;28;9002;-89
2023/06/18 05:02:17;;;;;;;;;31.40;31.00;;;;;19.47;46.99;99277.03;5031073;28;8868;-88
2023/06/18 05:04:47;;;;;;;;;54.75;44.50;;;;;19.50;47.28;99282.19;5029804;28;8935;-86
2023/06/18 05:07:17;;;;;;;;;29.00;28.40;;;;;19.66;47.08;99275.91;5047396;28;8859;-86
2023/06/18 05:09:50;;;;;;;;;19.00;16.40;;;;;19.86;47.25;99280.00;5015904;28;8879;-87
2023/06/18 05:12:22;;;;;;;;;16.00;15.80;;;;;20.09;46.81;99286.50;4985333;28;8889;-87
2023/06/18 05:14:52;;;;;;;;;18.00;18.00;;;;;19.97;46.36;99280.16;4977043;28;8874;-88
2023/06/18 05:17:24;;;;;;;;;52.25;42.50;;;;;20.15;46.24;99286.09;4945123;28;9065;-87
2023/06/18 05:19:55;;;;;;;;;25.60;25.20;;;;;20.28;46.09;99284.38;4919159;28;8873;-89
2023/06/18 05:22:24;;;;;;;;;23.80;22.60;;;;;20.18;45.17;99285.91;4935166;28;9174;-87
2023/06/18 05:24:59;;;;;;;;;15.20;15.00;;;;;20.02;45.95;99285.19;4934543;28;8900;-88
2023/06/18 05:27:29;;;;;;;;;28.40;27.40;;;;;20.24;45.44;99296.22;4950322;28;8864;-88
2023/06/18 05:29:59;;;;;;;;;18.00;17.40;;;;;19.40;46.91;99302.34;4934588;28;8849;-89
2023/06/18 05:32:28;;;;;;;;;16.00;15.60;;;;;18.86;47.85;99300.28;4923064;28;8916;-86
2023/06/18 05:34:58;;;;;;;;;17.80;17.20;;;;;19.22;47.02;99292.84;4963140;28;8877;-87
2023/06/18 05:37:29;;;;;;;;;17.80;17.40;;;;;19.05;47.82;99301.84;4982862;28;8856;-87
2023/06/18 05:40:02;;;;;;;;;16.80;15.60;;;;;19.39;47.00;99294.47;4998511;28;8874;-90
2023/06/18 05:43:10;;;;;;;;;14.20;14.20;;;;;19.54;46.47;99303.31;5003183;28;8994;-88
2023/06/18 05:45:47;;;;;;;;;78.00;66.33;;;;;19.77;45.65;99296.56;5005498;28;8837;-88
2023/06/18 05:48:16;;;;;;;;;29.40;26.80;;;;;20.01;45.19;99303.00;4988403;28;9228;-86
2023/06/18 05:50:57;;;;;;;;;18.40;18.00;;;;;20.50;44.62;99307.00;5004785;28;8852;-85
2023/06/18 05:53:27;;;;;;;;;20.20;20.00;;;;;20.47;44.15;99302.69;4972871;28;8872;-87
2023/06/18 05:55:58;;;;;;;;;17.00;15.20;;;;;19.48;46.83;99302.75;4976006;28;8978;-88
2023/06/18 05:58:27;;;;;;;;;16.20;16.20;;;;;19.62;46.46;99309.91;4973729;28;8957;-88
2023/06/18 06:00:58;;;;;;;;;18.20;16.00;;;;;19.02;48.08;99318.84;4989529;28;8964;-88
2023/06/18 06:03:27;;;;;;;;;15.80;15.80;;;;;19.43;47.22;99312.81;4956207;28;8838;-88
2023/06/18 06:06:01;;;;;;;;;18.00;16.40;;;;;19.44;45.96;99316.34;4957241;28;8858;-87
2023/06/18 06:08:32;;;;;;;;;20.00;17.20;;;;;18.49;48.19;99320.16;4994647;28;8862;-85
2023/06/18 06:11:07;;;;;;;;;17.00;16.60;;;;;18.34;49.42;99328.06;4958694;28;9030;-88
2023/06/18 06:13:39;;;;;;;;;18.60;18.60;;;;;18.39;49.54;99334.97;4965203;28;8862;-87
2023/06/18 06:16:12;;;;;;;;;32.00;29.40;;;;;18.59;49.24;99332.03;5027942;28;8874;-86
2023/06/18 06:18:42;;;;;;;;;21.20;21.00;;;;;17.62;51.20;99332.03;5011519;28;8870;-87
2023/06/18 06:21:15;;;;;;;;;20.40;19.40;;;;;17.79;51.22;99325.78;5030110;28;8874;-84
2023/06/18 06:23:45;;;;;;;;;18.20;18.20;;;;;18.39;50.06;99322.50;5018585;28;8854;-89
2023/06/18 06:26:17;;;;;;;;;21.20;21.20;;;;;17.90;51.37;99322.56;5016493;28;8977;-85
2023/06/18 06:28:56;;;;;;;;;22.00;22.00;;;;;18.09;50.63;99338.38;5034028;28;8846;-87
2023/06/18 06:31:52;;;;;;;;;23.40;22.40;;;;;17.30;53.34;99336.38;5032412;28;8878;-87
2023/06/18 06:34:21;;;;;;;;;21.20;20.80;;;;;17.61;53.00;99338.31;4993830;28;8878;-88
2023/06/18 06:36:52;;;;;;;;;25.20;25.20;;;;;17.94;52.44;99334.75;5008692;28;8995;-88
2023/06/18 06:39:29;;;;;;;;;28.20;24.00;;;;;18.03;52.92;99339.59;5010595;28;8955;-88
2023/06/18 06:42:04;;;;;;;;;23.20;23.20;;;;;17.60;54.34;99344.53;4980087;28;8891;-85
2023/06/18 06:44:49;;;;;;;;;26.20;25.20;;;;;17.68;53.69;99344.97;4937503;28;8860;-89
2023/06/18 06:47:32;;;;;;;;;19.60;19.60;;;;;18.11;52.77;99348.00;4995325;28;8848;-88
2023/06/18 06:50:19;;;;;;;;;18.20;17.20;;;;;18.44;52.32;99346.19;4994779;28;8968;-86
2023/06/18 06:53:12;;;;;;;;;25.80;24.00;;;;;17.63;53.61;99352.38;4995674;28;8858;-87
2023/06/18 06:55:42;;;;;;;;;21.20;21.20;;;;;17.55;55.09;99344.81;5006547;28;8868;-85
2023/06/18 06:58:17;;;;;;;;;25.00;24.60;;;;;17.83;53.54;99351.28;4990775;28;8883;-86
2023/06/18 07:00:46;;;;;;;;;23.80;23.80;;;;;18.33;52.43;99345.00;5020424;28;9419;-88
2023/06/18 07:03:17;;;;;;;;;22.00;19.80;;;;;17.89;52.82;99350.06;5013700;28;8864;-88
2023/06/18 07:05:49;;;;;;;;;26.60;25.60;;;;;18.25;52.44;99343.69;5037944;28;8855;-86
2023/06/18 07:08:18;;;;;;;;;23.60;21.00;;;;;18.39;52.50;99351.78;5052246;28;8858;-89
2023/06/18 07:10:47;;;;;;;;;21.20;21.20;;;;;18.29;52.57;99348.78;5035151;28;8854;-88
2023/06/18 07:13:25;;;;;;;;;18.40;18.40;;;;;18.45;52.11;99343.44;5037501;28;8953;-88
2023/06/18 07:16:07;;;;;;;;;21.00;21.00;;;;;18.73;51.71;99339.19;5018818;28;8980;-85
2023/06/18 07:18:36;;;;;;;;;24.40;23.80;;;;;19.13;50.53;99336.88;5005323;28;8870;-87
2023/06/18 07:21:07;;;;;;;;;23.00;23.00;;;;;19.08;51.12;99346.94;5011641;28;8856;-87
2023/06/18 07:23:37;;;;;;;;;21.40;21.20;;;;;19.16;49.53;99341.16;5027951;28;8887;-87
2023/06/18 07:26:06;;;;;;;;;35.60;33.00;;;;;19.25;50.38;99344.13;4996653;28;8868;-87
2023/06/18 07:28:37;;;;;;;;;23.40;22.60;;;;;19.70;49.08;99346.75;5014890;28;8847;-88
2023/06/18 07:31:06;;;;;;;;;23.60;21.80;;;;;19.85;49.31;99344.94;4950399;28;8833;-87
2023/06/18 07:37:18;;;;;;;;;20.20;20.00;;;;;20.15;47.06;99339.47;4943286;28;8876;-84
2023/06/18 07:40:28;;;;;;;;;20.20;19.40;;;;;20.42;45.93;99338.69;4917680;29;9582;-85
2023/06/18 07:42:57;;;;;;;;;20.40;19.80;;;;;20.05;46.15;99336.53;4898219;29;8867;-85
2023/06/18 07:45:32;;;;;;;;;22.80;20.80;;;;;19.68;47.19;99343.34;4884930;29;8878;-88
2023/06/18 07:48:21;;;;;;;;;23.60;21.60;;;;;19.84;46.52;99344.09;4919005;29;8879;-85
2023/06/18 07:51:14;;;;;;;;;17.00;16.80;;;;;20.10;45.52;99342.44;4909244;29;8863;-85
2023/06/18 07:53:45;;;;;;;;;21.40;20.20;;;;;19.58;45.91;99344.88;4902064;29;8887;-87
2023/06/18 07:56:16;;;;;;;;;20.00;19.40;;;;;19.52;45.13;99346.94;4901602;29;8911;-86
2023/06/18 07:59:06;;;;;;;;;19.80;19.80;;;;;19.52;46.52;99344.28;4900395;29;8881;-88
2023/06/18 08:01:38;;;;;;;;;19.40;19.40;;;;;19.98;46.09;99340.56;4891669;29;8870;-88
2023/06/18 08:04:08;;;;;;;;;22.00;21.80;;;;;19.80;45.72;99347.91;4886145;29;8920;-87
2023/06/18 08:06:38;;;;;;;;;17.20;16.20;;;;;20.24;45.32;99336.25;4868484;29;8987;-85
2023/06/18 08:09:07;;;;;;;;;19.60;17.60;;;;;19.88;43.57;99355.44;4885502;29;8896;-87
2023/06/18 08:11:37;;;;;;;;;20.20;18.40;;;;;20.17;44.34;99334.88;4860252;29;8880;-86
2023/06/18 08:14:06;;;;;;;;;19.20;18.40;;;;;20.05;44.55;99336.53;4884661;29;8929;-86
2023/06/18 08:16:35;;;;;;;;;18.40;17.40;;;;;20.84;43.79;99344.78;4897043;29;9615;-89
2023/06/18 08:19:07;;;;;;;;;19.20;17.80;;;;;21.03;42.92;99342.66;4928769;29;8904;-88
2023/06/18 08:21:38;;;;;;;;;18.80;18.20;;;;;20.70;44.06;99350.22;4948587;29;8978;-87
2023/06/18 08:24:07;;;;;;;;;19.60;18.20;;;;;21.40;42.47;99349.94;4950074;29;8897;-88
2023/06/18 08:26:37;;;;;;;;;21.00;19.40;;;;;21.42;41.47;99358.72;4949326;29;8945;-86
2023/06/18 08:29:11;;;;;;;;;19.60;18.40;;;;;21.20;42.68;99351.31;4951747;28;8938;-86
2023/06/18 08:31:42;;;;;;;;;17.60;16.40;;;;;21.37;41.28;99352.81;5003747;28;8990;-87
2023/06/18 08:34:12;;;;;;;;;18.20;16.20;;;;;20.72;41.74;99354.50;5010817;28;8867;-87
2023/06/18 08:36:46;;;;;;;;;23.40;23.40;;;;;21.29;41.24;99353.34;5030093;28;8862;-88
2023/06/18 08:39:16;;;;;;;;;14.20;14.20;;;;;21.31;39.57;99354.09;4999110;28;8858;-84
2023/06/18 08:41:45;;;;;;;;;15.00;15.00;;;;;21.38;39.38;99352.72;4987514;28;8866;-86
2023/06/18 08:44:16;;;;;;;;;13.60;13.60;;;;;21.38;39.64;99360.75;5038340;28;9625;-86
2023/06/18 08:46:50;;;;;;;;;16.60;15.60;;;;;22.15;38.97;99355.34;4986263;28;8849;-85
2023/06/18 08:49:22;;;;;;;;;14.80;14.40;;;;;22.47;37.85;99354.00;4970558;28;8907;-85
2023/06/18 08:51:55;;;;;;;;;15.20;14.40;;;;;22.74;37.06;99353.78;5002824;28;8943;-88
2023/06/18 08:54:31;;;;;;;;;12.00;12.00;;;;;22.75;36.60;99348.31;4984666;28;8897;-85
2023/06/18 08:57:23;;;;;;;;;15.40;14.40;;;;;21.88;36.75;99360.00;4977037;28;9662;-89
2023/06/18 09:00:04;;;;;;;;;11.80;11.80;;;;;22.56;36.00;99356.88;4858567;29;8926;-86
2023/06/18 09:02:47;;;;;;;;;10.60;10.60;;;;;22.87;36.04;99343.00;4789928;29;8942;-86
2023/06/18 09:05:19;;;;;;;;;11.20;11.20;;;;;23.15;35.17;99345.31;4853860;29;9758;-88
2023/06/18 09:07:50;;;;;;;;;13.40;13.40;;;;;23.21;34.67;99343.97;4852273;29;8906;-86
2023/06/18 09:10:19;;;;;;;;;13.00;12.20;;;;;22.55;35.00;99360.50;4856225;29;8891;-87
2023/06/18 09:12:48;;;;;;;;;13.20;12.60;;;;;22.56;36.08;99350.63;4871171;29;8953;-85
2023/06/18 09:15:17;;;;;;;;;14.40;13.80;;;;;23.10;35.53;99352.00;4870850;29;8884;-86
2023/06/18 09:17:51;;;;;;;;;12.20;11.20;;;;;23.52;34.82;99341.63;4854548;28;8887;-84
2023/06/18 09:20:21;;;;;;;;;14.60;12.60;;;;;22.97;34.86;99352.91;4982294;28;8869;-85
2023/06/18 09:22:51;;;;;;;;;12.20;12.20;;;;;22.47;33.85;99348.63;4955504;28;8877;-85
2023/06/18 09:25:22;;;;;;;;;31.00;29.80;;;;;23.22;34.27;99342.16;5011717;28;8891;-86
2023/06/18 09:27:57;;;;;;;;;16.40;16.40;;;;;23.39;33.78;99342.56;5006717;28;8868;-87
2023/06/18 09:30:26;;;;;;;;;13.60;13.00;;;;;23.20;34.53;99334.22;4978437;28;8877;-87
2023/06/18 09:32:57;;;;;;;;;13.00;12.20;;;;;22.80;34.67;99337.22;5021089;28;8916;-85
2023/06/18 09:35:28;;;;;;;;;9.80;9.80;;;;;22.47;34.48;99336.13;5006992;28;8862;-87
2023/06/18 09:37:57;;;;;;;;;10.20;10.20;;;;;23.10;33.87;99330.53;5026064;28;8858;-87
2023/06/18 09:40:26;;;;;;;;;12.60;12.00;;;;;22.32;32.84;99340.78;4993382;28;8897;-89
2023/06/18 09:43:02;;;;;;;;;12.60;12.20;;;;;22.50;33.14;99335.88;4995823;28;8850;-84
2023/06/18 09:45:32;;;;;;;;;12.80;12.00;;;;;22.99;32.39;99340.25;4992735;28;8948;-87
2023/06/18 09:48:01;;;;;;;;;11.80;11.80;;;;;22.43;33.10;99340.00;5012006;28;9084;-88
2023/06/18 09:50:32;;;;;;;;;5.20;5.20;;;;;21.80;32.79;99348.03;5012266;28;8846;-86
2023/06/18 09:53:02;;;;;;;;;10.60;10.60;;;;;21.77;31.93;99342.91;5011206;28;8889;-88
2023/06/18 09:55:32;;;;;;;;;12.00;11.20;;;;;21.86;32.44;99338.72;4987131;28;8876;-88
2023/06/18 09:58:04;;;;;;;;;11.80;11.80;;;;;21.71;32.36;99335.31;5003527;28;8884;-87
2023/06/18 10:00:34;;;;;;;;;14.40;14.00;;;;;21.62;33.14;99333.31;4990864;28;8873;-86
2023/06/18 10:03:08;;;;;;;;;11.60;11.20;;;;;22.35;32.79;99339.69;4964175;28;8868;-87
2023/06/18 10:05:45;;;;;;;;;10.80;10.60;;;;;22.92;33.00;99328.31;4974870;28;8865;-86
2023/06/18 10:08:15;;;;;;;;;13.40;12.80;;;;;22.85;32.59;99326.19;4991244;28;8880;-86
2023/06/18 10:10:45;;;;;;;;;12.80;11.60;;;;;23.14;32.51;99318.59;4989858;28;8888;-85
2023/06/18 10:13:15;;;;;;;;;13.80;12.00;;;;;23.27;32.76;99322.03;4991005;28;8900;-86
2023/06/18 10:15:46;;;;;;;;;10.40;10.00;;;;;23.51;30.79;99315.75;4977153;28;8861;-85
2023/06/18 10:18:22;;;;;;;;;11.20;10.20;;;;;23.24;29.61;99329.47;5000564;28;8884;-88
2023/06/18 10:20:56;;;;;;;;;11.40;10.20;;;;;23.37;30.04;99328.41;4959628;28;8884;-84
2023/06/18 10:23:27;;;;;;;;;12.40;10.80;;;;;23.02;29.67;99330.28;4991471;28;8888;-86
2023/06/18 10:26:16;;;;;;;;;12.40;12.40;;;;;22.29;31.13;99324.06;4975936;28;8920;-85
2023/06/18 10:28:46;;;;;;;;;12.40;11.40;;;;;22.44;31.98;99330.13;4960931;28;8888;-86
2023/06/18 10:31:18;;;;;;;;;13.40;12.60;;;;;22.65;31.42;99336.56;4969217;28;8872;-88
2023/06/18 10:33:48;;;;;;;;;10.60;10.60;;;;;21.99;32.66;99326.19;4953210;28;8869;-87
2023/06/18 10:36:19;;;;;;;;;13.20;11.60;;;;;21.84;33.09;99336.16;4984623;28;8872;-87
2023/06/18 10:38:50;;;;;;;;;13.00;12.00;;;;;22.20;33.07;99328.25;4953452;28;9665;-88
2023/06/18 10:44:08;;;;;;;;;12.20;12.20;;;;;22.34;31.74;99327.28;4972965;28;8949;-88
2023/06/18 10:46:37;;;;;;;;;11.60;11.60;;;;;22.26;32.41;99330.53;4973523;28;8881;-86
2023/06/18 10:49:15;;;;;;;;;43.25;37.25;;;;;22.63;32.74;99324.25;4990779;28;8870;-85
2023/06/18 10:52:06;;;;;;;;;14.60;14.00;;;;;21.88;33.51;99330.56;4991531;28;8862;-86
2023/06/18 10:54:37;;;;;;;;;13.80;12.60;;;;;22.33;33.89;99328.22;4975461;28;8866;-86
2023/06/18 10:57:13;;;;;;;;;13.00;13.00;;;;;22.98;33.63;99317.09;4991294;28;8872;-85
2023/06/18 10:59:44;;;;;;;;;10.60;10.00;;;;;22.74;33.15;99319.78;4993796;28;8833;-85
2023/06/18 11:02:15;;;;;;;;;12.60;11.40;;;;;23.25;32.74;99323.16;4927141;28;9743;-85
2023/06/18 11:04:48;;;;;;;;;12.00;12.00;;;;;23.54;32.59;99312.84;4974910;28;9641;-84
2023/06/18 11:07:23;;;;;;;;;14.00;13.40;;;;;23.78;32.56;99315.41;5007096;28;8984;-86
2023/06/18 11:09:56;;;;;;;;;12.00;11.80;;;;;24.20;32.42;99310.25;4975626;28;8872;-85
2023/06/18 11:12:26;;;;;;;;;11.40;11.00;;;;;23.79;32.66;99317.13;4991431;28;8848;-87
2023/06/18 11:15:21;;;;;;;;;12.20;12.20;;;;;24.21;32.16;99321.88;5011520;28;8984;-85
2023/06/18 11:17:53;;;;;;;;;14.00;13.60;;;;;24.05;31.91;99315.00;4972989;28;9083;-83
2023/06/18 11:20:24;;;;;;;;;12.40;12.40;;;;;23.52;32.51;99322.84;4976866;28;8951;-82
2023/06/18 11:22:57;;;;;;;;;11.80;11.80;;;;;22.98;33.40;99316.25;4976194;28;8869;-84
2023/06/18 11:25:29;;;;;;;;;11.00;11.00;;;;;23.50;33.17;99304.13;4963135;28;8872;-86
2023/06/18 11:28:01;;;;;;;;;12.40;12.40;;;;;23.66;33.31;99313.69;4938150;28;8873;-85
2023/06/18 11:30:32;;;;;;;;;14.40;14.40;;;;;23.97;33.00;99304.03;4956458;28;8872;-84
2023/06/18 11:33:01;;;;;;;;;15.40;13.20;;;;;24.19;32.85;99308.56;4955450;28;8880;-84
2023/06/18 11:35:31;;;;;;;;;20.40;20.40;;;;;24.98;30.62;99313.66;4972532;28;8898;-82
2023/06/18 11:38:01;;;;;;;;;14.60;14.60;;;;;25.34;30.28;99307.94;4987939;28;8890;-81
2023/06/18 11:40:30;;;;;;;;;13.80;12.60;;;;;24.52;30.56;99314.81;4953980;28;8855;-83
2023/06/18 11:43:00;;;;;;;;;14.00;14.00;;;;;24.52;31.37;99310.28;4971721;28;8863;-82
2023/06/18 11:45:30;;;;;;;;;11.00;11.00;;;;;24.39;31.45;99309.59;4974978;28;8886;-84
2023/06/18 11:47:59;;;;;;;;;12.80;12.80;;;;;23.70;32.37;99315.19;4975816;28;8897;-83
2023/06/18 11:50:28;;;;;;;;;10.80;10.80;;;;;24.52;31.68;99310.28;4970655;28;8977;-83
2023/06/18 11:52:57;;;;;;;;;9.80;9.80;;;;;25.48;30.95;99313.84;4968661;28;8851;-83